Time;durP1;ratioP1;P1;durP2;ratioP2;P2;SDS_P1;SDS_P2;PMS_P1;PMS_P2;Temp;Humidity;BMP_temperature;BMP_pressure;BME280_temperature;BME280_humidity;BME280_pressure;Samples;Min_cycle;Max_cycle;Signal;HPM_P1;HPM_P2
2022/02/22 00:01:10;;;;;;;4.28;2.15;;;5.30;99.90;;;;;;4991814;28;20213;-88
2022/02/22 00:03:38;;;;;;;11.88;4.25;;;5.00;99.90;;;;;;4991777;28;20226;-87
2022/02/22 00:06:05;;;;;;;8.38;2.30;;;4.90;99.90;;;;;;4991543;28;20225;-87
2022/02/22 00:08:32;;;;;;;7.75;2.40;;;4.90;99.90;;;;;;4991113;28;20202;-87
2022/02/22 00:10:59;;;;;;;4.25;2.10;;;;;;;;;;4991533;28;20216;-88
2022/02/22 00:13:27;;;;;;;4.97;2.00;;;5.00;99.90;;;;;;4990589;28;20261;-86
2022/02/22 00:15:54;;;;;;;7.05;2.30;;;5.00;99.90;;;;;;4990529;28;20280;-87
2022/02/22 00:18:21;;;;;;;3.72;2.08;;;4.90;99.90;;;;;;4993149;28;20209;-87
2022/02/22 00:20:49;;;;;;;6.90;3.05;;;5.00;99.90;;;;;;4991523;28;20206;-87
2022/02/22 00:23:16;;;;;;;2.65;1.85;;;5.00;99.90;;;;;;4991041;28;20249;-87
2022/02/22 00:25:43;;;;;;;6.07;2.67;;;5.00;99.90;;;;;;4994861;28;20233;-87
2022/02/22 00:28:09;;;;;;;12.63;3.10;;;5.00;99.90;;;;;;4998889;28;20210;-88
2022/02/22 00:30:36;;;;;;;5.93;2.67;;;5.10;99.90;;;;;;4994824;28;20237;-87
2022/02/22 00:33:03;;;;;;;6.13;2.53;;;5.10;99.90;;;;;;4995822;28;20202;-87
2022/02/22 00:35:30;;;;;;;7.50;2.47;;;5.10;99.90;;;;;;4997235;28;20242;-86
2022/02/22 00:37:58;;;;;;;8.95;3.40;;;5.20;99.90;;;;;;4983417;28;20202;-86
2022/02/22 00:40:24;;;;;;;6.25;3.25;;;5.10;99.90;;;;;;4983125;28;20237;-87
2022/02/22 00:42:51;;;;;;;7.68;2.45;;;5.10;99.90;;;;;;4988112;28;20237;-87
2022/02/22 00:45:18;;;;;;;8.00;3.67;;;5.10;99.90;;;;;;4987824;28;20228;-86
2022/02/22 00:47:45;;;;;;;5.00;2.03;;;5.10;99.90;;;;;;4988582;28;20206;-86
2022/02/22 00:50:11;;;;;;;3.22;2.05;;;5.10;99.90;;;;;;4989091;28;20205;-86
2022/02/22 00:52:38;;;;;;;3.05;2.45;;;;;;;;;;4988376;28;20268;-86
2022/02/22 00:55:08;;;;;;;8.07;2.78;;;5.20;99.90;;;;;;4987306;28;20237;-86
2022/02/22 00:57:35;;;;;;;6.55;1.90;;;5.20;99.90;;;;;;4996808;28;20208;-88
2022/02/22 01:00:02;;;;;;;2.47;2.10;;;4.80;99.90;;;;;;4995779;28;20201;-86
2022/02/22 01:02:29;;;;;;;6.88;2.90;;;5.20;99.90;;;;;;4990856;28;20246;-87
2022/02/22 01:04:55;;;;;;;5.75;2.10;;;5.20;99.90;;;;;;4990468;28;20218;-88
2022/02/22 01:07:22;;;;;;;7.00;2.38;;;5.30;99.90;;;;;;4989380;28;20256;-87
2022/02/22 01:09:49;;;;;;;5.25;2.13;;;5.20;99.90;;;;;;4998944;28;20212;-88
2022/02/22 01:12:18;;;;;;;7.18;2.75;;;5.20;99.90;;;;;;5000455;28;20233;-88
2022/02/22 01:14:45;;;;;;;3.50;2.15;;;5.10;99.90;;;;;;4997864;28;20218;-88
2022/02/22 01:17:12;;;;;;;4.72;1.70;;;5.20;99.90;;;;;;4992339;28;20201;-87
2022/02/22 01:19:38;;;;;;;3.65;1.90;;;5.20;99.90;;;;;;4996031;28;20186;-86
2022/02/22 01:22:05;;;;;;;5.72;2.70;;;5.40;99.90;;;;;;4996946;28;20217;-88
2022/02/22 01:24:33;;;;;;;7.22;2.22;;;5.10;99.90;;;;;;4994482;28;20225;-87
2022/02/22 01:27:00;;;;;;;5.97;2.85;;;5.30;99.90;;;;;;4993035;28;20205;-86
2022/02/22 01:29:28;;;;;;;5.45;2.30;;;5.40;99.90;;;;;;4992977;28;20212;-88
2022/02/22 01:31:54;;;;;;;7.65;1.42;;;5.40;99.90;;;;;;4993914;28;20217;-87
2022/02/22 01:34:21;;;;;;;3.10;2.42;;;5.50;99.90;;;;;;4988951;28;20213;-89
2022/02/22 01:36:48;;;;;;;5.88;2.20;;;5.40;99.90;;;;;;4989480;28;20212;-89
2022/02/22 01:39:14;;;;;;;2.58;1.92;;;5.30;99.90;;;;;;4987530;28;20209;-87
2022/02/22 01:41:44;;;;;;;7.57;2.33;;;5.40;99.90;;;;;;4986790;28;20305;-88
2022/02/22 01:44:11;;;;;;;5.78;2.10;;;5.40;99.90;;;;;;4987185;28;20221;-87
2022/02/22 01:46:39;;;;;;;9.10;2.25;;;5.40;99.90;;;;;;4987877;28;20230;-87
2022/02/22 01:49:06;;;;;;;4.32;1.98;;;5.40;99.90;;;;;;4990078;28;20198;-88
2022/02/22 01:51:33;;;;;;;2.92;1.70;;;5.40;99.90;;;;;;4989523;28;20283;-87
2022/02/22 01:53:59;;;;;;;7.43;2.28;;;5.40;99.90;;;;;;4987433;28;20633;-87
2022/02/22 01:56:26;;;;;;;6.25;2.38;;;5.40;99.90;;;;;;4987029;28;20233;-87
2022/02/22 01:58:53;;;;;;;7.90;2.20;;;5.30;99.90;;;;;;4988465;28;20206;-88
2022/02/22 02:01:19;;;;;;;3.40;1.70;;;5.30;99.90;;;;;;4988322;28;20209;-86
2022/02/22 02:03:49;;;;;;;6.72;2.75;;;5.30;99.90;;;;;;4988369;28;20233;-87
2022/02/22 02:06:18;;;;;;;4.68;1.80;;;5.30;99.90;;;;;;4986862;28;20222;-88
2022/02/22 02:08:44;;;;;;;6.05;2.22;;;5.30;99.90;;;;;;4986994;28;20273;-87
2022/02/22 02:11:11;;;;;;;10.52;2.50;;;5.30;99.90;;;;;;4987218;28;20197;-88
2022/02/22 02:13:38;;;;;;;7.95;2.10;;;5.30;99.90;;;;;;4989443;28;20202;-87
2022/02/22 02:16:06;;;;;;;10.38;2.17;;;5.20;99.90;;;;;;4988010;28;20232;-87
2022/02/22 02:18:33;;;;;;;5.43;1.83;;;5.50;99.90;;;;;;4987656;28;20209;-87
2022/02/22 02:21:02;;;;;;;5.75;2.15;;;5.30;99.90;;;;;;4987572;28;20240;-87
2022/02/22 02:23:30;;;;;;;9.68;2.35;;;5.40;99.90;;;;;;4987893;28;20245;-87
2022/02/22 02:25:58;;;;;;;3.45;1.35;;;5.30;99.90;;;;;;4988019;28;20225;-87
2022/02/22 02:28:25;;;;;;;6.40;2.35;;;;;;;;;;4990243;28;20205;-85
2022/02/22 02:30:53;;;;;;;4.57;2.60;;;;;;;;;;4995265;28;20221;-86
2022/02/22 02:33:19;;;;;;;3.95;1.73;;;5.60;99.90;;;;;;4996237;28;20253;-88
2022/02/22 02:35:46;;;;;;;4.30;1.50;;;5.40;99.90;;;;;;4992301;28;20301;-86
2022/02/22 02:38:15;;;;;;;2.50;1.73;;;;;;;;;;4988188;28;20212;-87
2022/02/22 02:40:44;;;;;;;9.48;2.65;;;5.30;99.90;;;;;;4990922;28;20202;-86
2022/02/22 02:43:11;;;;;;;6.65;2.85;;;;;;;;;;4999164;28;20206;-86
2022/02/22 02:45:38;;;;;;;6.82;2.05;;;;;;;;;;4998519;28;20226;-88
2022/02/22 02:48:05;;;;;;;5.93;1.83;;;;;;;;;;4997730;28;20209;-87
2022/02/22 02:50:32;;;;;;;3.00;1.80;;;;;;;;;;4997926;28;20210;-88
2022/02/22 02:52:59;;;;;;;3.30;1.63;;;5.20;99.90;;;;;;4988199;28;20209;-85
2022/02/22 02:55:27;;;;;;;6.07;1.90;;;6.00;99.90;;;;;;4990684;28;20284;-87
2022/02/22 02:57:55;;;;;;;5.20;2.00;;;5.20;99.90;;;;;;4993065;28;20205;-87
2022/02/22 03:00:25;;;;;;;8.30;2.85;;;5.00;99.90;;;;;;4993411;28;20205;-87
2022/02/22 03:02:52;;;;;;;9.68;2.60;;;5.20;99.90;;;;;;4995610;28;20206;-86
2022/02/22 03:05:20;;;;;;;7.75;2.88;;;;;;;;;;4993740;28;20222;-87
2022/02/22 03:07:47;;;;;;;8.50;2.72;;;;;;;;;;4995953;28;20206;-85
2022/02/22 03:10:14;;;;;;;8.52;2.83;;;;;;;;;;4996277;28;20210;-86
2022/02/22 03:12:41;;;;;;;9.93;2.50;;;5.20;99.90;;;;;;4996110;28;20205;-86
2022/02/22 03:15:10;;;;;;;10.60;2.35;;;5.10;99.90;;;;;;4998369;28;20289;-85
2022/02/22 03:17:37;;;;;;;3.72;1.67;;;;;;;;;;4997459;28;20249;-87
2022/02/22 03:20:05;;;;;;;5.15;1.55;;;5.20;99.90;;;;;;4997852;28;20296;-88
2022/02/22 03:22:32;;;;;;;7.07;1.98;;;5.20;99.90;;;;;;4998927;28;20209;-86
2022/02/22 03:24:59;;;;;;;12.15;2.50;;;5.20;99.90;;;;;;4999278;28;20238;-87
2022/02/22 03:27:25;;;;;;;2.85;1.60;;;5.10;99.90;;;;;;4996462;28;20210;-86
2022/02/22 03:29:52;;;;;;;9.20;2.10;;;5.20;99.90;;;;;;4993626;28;20209;-87
2022/02/22 03:32:20;;;;;;;7.00;2.03;;;5.30;99.90;;;;;;4994386;28;20238;-86
2022/02/22 03:34:46;;;;;;;9.38;3.50;;;5.30;99.90;;;;;;4986619;28;20253;-87
2022/02/22 03:37:14;;;;;;;8.98;1.92;;;5.30;99.90;;;;;;4995387;28;20201;-85
2022/02/22 03:39:41;;;;;;;6.60;1.83;;;;;;;;;;4995451;28;20229;-87
2022/02/22 03:42:08;;;;;;;4.05;2.30;;;5.10;99.90;;;;;;5001432;28;20192;-87
2022/02/22 03:44:35;;;;;;;11.95;2.30;;;5.20;99.90;;;;;;5002282;28;20209;-86
2022/02/22 03:47:02;;;;;;;10.90;2.40;;;;;;;;;;5002122;28;20209;-87
2022/02/22 03:49:30;;;;;;;7.28;2.10;;;5.20;99.90;;;;;;5001993;28;20189;-87
2022/02/22 03:51:57;;;;;;;5.00;1.70;;;;;;;;;;4993727;28;20670;-86
2022/02/22 03:54:24;;;;;;;5.40;1.95;;;;;;;;;;4987971;28;20202;-88
2022/02/22 03:56:51;;;;;;;9.48;2.35;;;;;;;;;;4988998;28;20206;-86
2022/02/22 03:59:21;;;;;;;7.18;2.53;;;;;;;;;;4994088;28;20213;-87
2022/02/22 04:01:49;;;;;;;10.48;2.65;;;;;;;;;;4993848;28;20233;-88
2022/02/22 04:04:17;;;;;;;9.55;2.85;;;;;;;;;;4996033;28;20551;-89
2022/02/22 04:06:45;;;;;;;10.43;2.72;;;5.30;99.90;;;;;;4993930;28;20239;-86
2022/02/22 04:09:22;;;;;;;6.90;2.67;;;5.10;99.90;;;;;;4998532;28;20198;-87
2022/02/22 04:11:49;;;;;;;18.58;3.80;;;;;;;;;;5000986;28;20194;-87
2022/02/22 04:14:16;;;;;;;10.52;2.95;;;;;;;;;;4997425;28;20212;-88
2022/02/22 04:16:43;;;;;;;15.65;5.15;;;;;;;;;;4994768;28;20214;-87
2022/02/22 04:19:13;;;;;;;12.98;3.17;;;;;;;;;;4995106;28;20197;-88
2022/02/22 04:21:40;;;;;;;9.35;3.55;;;;;;;;;;4994507;28;20201;-87
2022/02/22 04:24:11;;;;;;;19.60;8.88;;;5.30;99.90;;;;;;4994382;28;20218;-86
2022/02/22 04:26:38;;;;;;;11.80;3.22;;;;;;;;;;4993369;28;20229;-88
2022/02/22 04:29:05;;;;;;;11.75;4.43;;;;;;;;;;4993260;28;20205;-88
2022/02/22 04:31:38;;;;;;;14.20;3.40;;;5.30;99.90;;;;;;4992042;28;20221;-88
2022/02/22 04:34:06;;;;;;;10.73;2.70;;;5.30;99.90;;;;;;4993595;28;20551;-87
2022/02/22 04:36:33;;;;;;;11.88;3.08;;;;;;;;;;4994665;28;20249;-87
2022/02/22 04:39:00;;;;;;;9.52;3.35;;;5.30;99.90;;;;;;4996551;28;20210;-87
2022/02/22 04:41:28;;;;;;;13.95;3.50;;;5.20;99.90;;;;;;4992622;28;20465;-87
2022/02/22 04:43:58;;;;;;;10.07;2.80;;;6.70;99.90;;;;;;4992642;28;20205;-87
2022/02/22 04:46:25;;;;;;;10.05;3.95;;;7.80;99.90;;;;;;4985243;28;20281;-86
2022/02/22 04:48:52;;;;;;;11.00;2.75;;;5.20;99.90;;;;;;4986473;28;20326;-86
2022/02/22 04:51:19;;;;;;;19.02;4.30;;;;;;;;;;4987062;28;20198;-86
2022/02/22 04:53:45;;;;;;;12.35;3.72;;;5.10;99.90;;;;;;4989113;28;20222;-87
2022/02/22 04:56:12;;;;;;;9.25;3.10;;;5.10;99.90;;;;;;5041821;23;20243;-85
2022/02/22 04:58:40;;;;;;;15.20;4.95;;;5.20;99.90;;;;;;5002296;28;20201;-84
2022/02/22 05:01:07;;;;;;;8.80;3.60;;;5.10;99.90;;;;;;5001954;28;20676;-85
2022/02/22 05:03:34;;;;;;;9.98;3.15;;;5.10;99.90;;;;;;5003094;28;20247;-85
2022/02/22 05:06:00;;;;;;;18.15;4.80;;;5.20;99.90;;;;;;5002759;28;20252;-84
2022/02/22 05:08:27;;;;;;;21.02;3.45;;;5.00;99.90;;;;;;5016077;28;20204;-85
2022/02/22 05:10:54;;;;;;;12.10;4.18;;;4.90;1.00;;;;;;5019698;28;20212;-84
2022/02/22 05:13:20;;;;;;;6.18;2.60;;;5.00;1.00;;;;;;5019903;28;20189;-84
2022/02/22 05:15:48;;;;;;;14.23;3.55;;;5.10;1.00;;;;;;5019614;28;20229;-83
2022/02/22 05:18:15;;;;;;;6.70;3.88;;;;;;;;;;5019105;28;20224;-84
2022/02/22 05:20:54;;;;;;;19.20;3.58;;;5.00;1.00;;;;;;5019383;28;20193;-85
2022/02/22 05:23:20;;;;;;;8.27;3.08;;;5.00;1.00;;;;;;5018607;28;20216;-85
2022/02/22 05:25:47;;;;;;;8.80;2.50;;;;;;;;;;5015165;28;20284;-85
2022/02/22 05:28:14;;;;;;;21.85;4.32;;;5.00;1.00;;;;;;5016125;28;20209;-85
2022/02/22 05:30:41;;;;;;;16.10;4.18;;;4.90;1.00;;;;;;5006032;28;20628;-84
2022/02/22 05:33:09;;;;;;;16.90;3.20;;;4.70;1.00;;;;;;5007018;28;20228;-84
2022/02/22 05:35:36;;;;;;;13.80;4.35;;;4.90;1.00;;;;;;4999736;28;20445;-84
2022/02/22 05:38:03;;;;;;;16.27;4.10;;;5.00;1.00;;;;;;4999099;28;20457;-84
2022/02/22 05:40:29;;;;;;;17.88;5.10;;;5.20;1.00;;;;;;5001014;28;20239;-84
2022/02/22 05:42:56;;;;;;;16.85;4.20;;;5.00;1.00;;;;;;5002190;28;20567;-84
2022/02/22 05:45:23;;;;;;;11.63;3.92;;;5.00;1.00;;;;;;5013193;28;20229;-84
2022/02/22 05:47:50;;;;;;;11.00;4.00;;;5.00;1.00;;;;;;5013271;28;20193;-84
2022/02/22 05:50:18;;;;;;;8.77;4.50;;;5.00;1.00;;;;;;5014926;28;20208;-84
2022/02/22 05:52:45;;;;;;;21.83;4.82;;;5.00;1.00;;;;;;5012128;28;20212;-84
2022/02/22 05:55:12;;;;;;;13.60;3.67;;;5.00;99.90;;;;;;5004482;28;20319;-84
2022/02/22 05:57:39;;;;;;;14.88;4.03;;;5.10;1.00;;;;;;5002795;28;20212;-84
2022/02/22 06:00:07;;;;;;;21.90;3.95;;;5.00;99.90;;;;;;5004602;28;20208;-85
2022/02/22 06:02:34;;;;;;;11.52;4.30;;;5.00;1.00;;;;;;5001960;28;20243;-84
2022/02/22 06:05:00;;;;;;;8.15;3.40;;;5.10;99.90;;;;;;5000243;28;20225;-84
2022/02/22 06:07:29;;;;;;;10.45;3.50;;;5.00;99.90;;;;;;5007354;28;20205;-84
2022/02/22 06:09:56;;;;;;;15.38;4.45;;;5.10;99.90;;;;;;5008107;28;20271;-85
2022/02/22 06:12:22;;;;;;;13.07;3.55;;;5.00;1.00;;;;;;5006159;28;20633;-84
2022/02/22 06:14:49;;;;;;;10.32;3.35;;;5.10;99.90;;;;;;5017636;28;20189;-84
2022/02/22 06:17:16;;;;;;;12.40;4.82;;;5.20;99.90;;;;;;5018084;28;20265;-85
2022/02/22 06:19:43;;;;;;;10.23;4.53;;;5.20;99.90;;;;;;5018426;28;20225;-85
2022/02/22 06:22:09;;;;;;;15.95;4.07;;;5.10;99.90;;;;;;5018769;28;20216;-85
2022/02/22 06:24:37;;;;;;;13.52;4.72;;;5.10;99.90;;;;;;5017768;28;20287;-83
2022/02/22 06:27:05;;;;;;;13.02;3.58;;;5.00;99.90;;;;;;5017936;28;20216;-83
2022/02/22 06:29:32;;;;;;;13.27;4.57;;;5.00;99.90;;;;;;5022134;28;20180;-83
2022/02/22 06:31:59;;;;;;;17.58;5.00;;;5.00;49.90;;;;;;5020109;28;20201;-83
2022/02/22 06:34:26;;;;;;;19.83;6.32;;;5.10;99.90;;;;;;5004420;28;20205;-85
2022/02/22 06:36:52;;;;;;;17.20;4.13;;;5.20;1.00;;;;;;5003962;28;20707;-85
2022/02/22 06:39:19;;;;;;;12.38;4.13;;;5.10;1.00;;;;;;5003292;28;20296;-85
2022/02/22 06:41:47;;;;;;;12.38;4.30;;;5.10;99.90;;;;;;5002551;28;20300;-85
2022/02/22 06:44:15;;;;;;;17.67;4.80;;;5.00;1.00;;;;;;5002951;28;20209;-84
2022/02/22 06:46:42;;;;;;;11.02;3.90;;;5.10;1.00;;;;;;5003414;28;20232;-84
2022/02/22 06:49:08;;;;;;;17.65;5.55;;;5.10;99.90;;;;;;5003495;28;20227;-85
2022/02/22 06:51:35;;;;;;;17.42;4.20;;;5.10;99.90;;;;;;5008459;28;20193;-85
2022/02/22 06:54:01;;;;;;;17.85;4.15;;;5.10;99.90;;;;;;5021475;28;20232;-85
2022/02/22 06:56:28;;;;;;;12.50;3.45;;;5.10;76.30;;;;;;5011032;28;20233;-84
2022/02/22 06:58:56;;;;;;;8.50;3.13;;;5.10;99.90;;;;;;5008250;28;20205;-84
2022/02/22 07:01:23;;;;;;;24.58;4.70;;;5.10;99.90;;;;;;5019623;28;20232;-85
2022/02/22 07:03:49;;;;;;;24.70;4.70;;;5.10;99.90;;;;;;5019060;28;20204;-85
2022/02/22 07:06:16;;;;;;;12.30;2.65;;;5.20;99.90;;;;;;5012252;28;20229;-84
2022/02/22 07:08:42;;;;;;;10.30;3.90;;;5.20;99.90;;;;;;5010427;28;20212;-85
2022/02/22 07:11:09;;;;;;;12.77;4.07;;;5.20;1.00;;;;;;5020451;28;20205;-86
2022/02/22 07:13:36;;;;;;;10.73;3.80;;;5.10;99.90;;;;;;5021092;28;20220;-86
2022/02/22 07:16:04;;;;;;;17.33;4.85;;;5.10;1.00;;;;;;5020772;28;20221;-87
2022/02/22 07:18:32;;;;;;;11.15;4.68;;;5.00;99.90;;;;;;5006889;28;20264;-86
2022/02/22 07:20:59;;;;;;;10.90;3.35;;;5.00;1.00;;;;;;5008574;28;20208;-84
2022/02/22 07:23:25;;;;;;;36.85;4.53;;;5.00;1.00;;;;;;5005772;28;20205;-85
2022/02/22 07:25:52;;;;;;;15.13;5.07;;;4.90;99.90;;;;;;5004540;28;20239;-85
2022/02/22 07:28:19;;;;;;;19.17;4.85;;;5.00;1.00;;;;;;5006675;28;20591;-85
2022/02/22 07:30:50;;;;;;;11.45;3.70;;;4.90;99.90;;;;;;5010672;28;20201;-85
2022/02/22 07:33:18;;;;;;;16.50;4.95;;;5.00;99.90;;;;;;5014800;28;20193;-86
2022/02/22 07:35:45;;;;;;;20.63;4.95;;;5.10;99.90;;;;;;5005073;28;20225;-85
2022/02/22 07:38:11;;;;;;;17.90;6.40;;;5.20;99.90;;;;;;5005409;28;20201;-86
2022/02/22 07:40:38;;;;;;;8.13;3.20;;;5.20;1.00;;;;;;5004042;28;20205;-87
2022/02/22 07:43:05;;;;;;;11.52;4.28;;;5.20;1.00;;;;;;5007555;28;20212;-85
2022/02/22 07:45:32;;;;;;;13.57;5.10;;;5.20;25.20;;;;;;5004305;28;20315;-86
2022/02/22 07:48:00;;;;;;;11.68;4.38;;;5.20;85.20;;;;;;5003355;28;20235;-85
2022/02/22 07:50:28;;;;;;;9.00;3.63;;;5.20;94.40;;;;;;5012979;28;20208;-86
2022/02/22 07:52:55;;;;;;;10.13;3.75;;;5.10;1.00;;;;;;5013418;28;20209;-85
2022/02/22 07:55:21;;;;;;;15.52;3.70;;;4.90;99.90;;;;;;5013355;28;20228;-85
2022/02/22 07:57:48;;;;;;;11.40;3.83;;;5.00;99.90;;;;;;5007919;28;20209;-84
2022/02/22 08:00:16;;;;;;;23.02;4.75;;;5.00;99.90;;;;;;5003545;28;20212;-86
2022/02/22 08:02:43;;;;;;;10.80;3.28;;;5.10;99.90;;;;;;5001940;28;20237;-85
2022/02/22 08:05:09;;;;;;;19.10;5.13;;;5.10;1.00;;;;;;5002054;28;20252;-85
2022/02/22 08:07:37;;;;;;;11.77;3.85;;;5.20;1.00;;;;;;5001775;28;20240;-86
2022/02/22 08:10:06;;;;;;;11.95;3.95;;;5.20;99.90;;;;;;5001790;28;20216;-85
2022/02/22 08:12:33;;;;;;;12.60;4.13;;;5.20;1.00;;;;;;5001716;28;20209;-85
2022/02/22 08:14:59;;;;;;;16.73;3.90;;;5.00;1.00;;;;;;5000831;28;20626;-85
2022/02/22 08:17:26;;;;;;;7.03;3.58;;;5.30;1.00;;;;;;5001439;28;20205;-85
2022/02/22 08:19:53;;;;;;;11.25;4.55;;;5.30;1.00;;;;;;5002543;28;20209;-85
2022/02/22 08:22:19;;;;;;;8.52;2.63;;;5.40;1.00;;;;;;5017373;28;20205;-84
2022/02/22 08:24:47;;;;;;;13.80;4.07;;;5.40;1.00;;;;;;5014925;28;20209;-85
2022/02/22 08:27:14;;;;;;;12.93;4.07;;;5.70;1.00;;;;;;5014184;28;20209;-85
2022/02/22 08:29:41;;;;;;;12.48;4.03;;;5.50;46.60;;;;;;5014482;28;20205;-85
2022/02/22 08:32:08;;;;;;;5.38;2.40;;;5.60;99.90;;;;;;5012308;28;20212;-85
2022/02/22 08:34:35;;;;;;;15.88;3.97;;;5.60;99.90;;;;;;5005279;28;20201;-85
2022/02/22 08:37:01;;;;;;;7.70;3.30;;;5.70;1.00;;;;;;5010475;28;20205;-85
2022/02/22 08:39:28;;;;;;;5.30;3.10;;;5.50;90.50;;;;;;5020173;28;20220;-85
2022/02/22 08:41:56;;;;;;;10.73;3.22;;;5.60;34.00;;;;;;5020317;28;20177;-85
2022/02/22 08:44:22;;;;;;;14.02;3.10;;;5.60;17.10;;;;;;5020501;28;20196;-85
2022/02/22 08:46:51;;;;;;;15.30;3.50;;;5.40;57.50;;;;;;5020091;28;20283;-85
2022/02/22 08:49:18;;;;;;;12.20;3.72;;;5.60;1.00;;;;;;5020168;28;20181;-85
2022/02/22 08:51:45;;;;;;;15.20;3.97;;;5.60;1.00;;;;;;5017434;28;20189;-86
2022/02/22 08:54:11;;;;;;;9.65;3.33;;;5.60;99.90;;;;;;5015750;28;20201;-86
2022/02/22 08:56:41;;;;;;;10.80;3.40;;;5.70;1.00;;;;;;5018945;28;20228;-86
2022/02/22 08:59:09;;;;;;;17.60;3.53;;;5.70;72.20;;;;;;5018830;28;20210;-86
2022/02/22 09:01:36;;;;;;;8.02;2.55;;;5.80;1.00;;;;;;5018958;28;20203;-86
2022/02/22 09:04:02;;;;;;;6.80;2.65;;;5.90;99.90;;;;;;5018179;28;20192;-85
2022/02/22 09:06:29;;;;;;;13.55;3.00;;;5.90;99.90;;;;;;5016333;28;20252;-85
2022/02/22 09:08:56;;;;;;;8.20;2.85;;;6.00;99.90;;;;;;5014997;28;20208;-85
2022/02/22 09:11:24;;;;;;;8.45;2.50;;;5.90;99.90;;;;;;5013352;28;20237;-85
2022/02/22 09:13:50;;;;;;;6.47;2.05;;;6.30;99.90;;;;;;5011784;28;20209;-85
2022/02/22 09:16:18;;;;;;;7.82;1.92;;;6.30;99.90;;;;;;5006519;28;20228;-85
2022/02/22 09:18:45;;;;;;;13.50;2.55;;;6.40;99.90;;;;;;5004802;28;20711;-85
2022/02/22 09:21:12;;;;;;;5.75;2.05;;;6.40;99.90;;;;;;5004207;28;20208;-85
2022/02/22 09:23:39;;;;;;;7.32;2.97;;;6.30;99.90;;;;;;5017475;28;20189;-85
2022/02/22 09:26:07;;;;;;;5.90;1.95;;;6.30;1.00;;;;;;5017866;28;20228;-87
2022/02/22 09:28:34;;;;;;;5.30;2.13;;;6.10;13.90;;;;;;5015463;28;20205;-84
2022/02/22 09:31:00;;;;;;;5.00;2.83;;;6.00;99.90;;;;;;5000156;28;20209;-84
2022/02/22 09:33:28;;;;;;;6.68;2.20;;;6.20;99.90;;;;;;4999551;28;20205;-85
2022/02/22 09:35:55;;;;;;;7.80;2.80;;;6.40;99.90;;;;;;4999495;28;20785;-85
2022/02/22 09:38:22;;;;;;;14.10;2.40;;;6.20;99.90;;;;;;5000625;28;20236;-86
2022/02/22 09:40:49;;;;;;;6.47;2.20;;;6.10;99.90;;;;;;5001353;28;20208;-86
2022/02/22 09:43:16;;;;;;;5.68;1.90;;;6.30;99.90;;;;;;5001356;28;20208;-85
2022/02/22 09:45:43;;;;;;;6.13;2.70;;;6.40;99.90;;;;;;5001945;28;20252;-85
2022/02/22 09:48:10;;;;;;;12.43;3.72;;;6.20;99.90;;;;;;5001403;28;20208;-86
2022/02/22 09:50:38;;;;;;;11.32;2.88;;;6.30;99.90;;;;;;5001648;28;20579;-86
2022/02/22 09:53:05;;;;;;;11.45;2.85;;;6.10;99.90;;;;;;5004388;28;20205;-85
2022/02/22 09:55:32;;;;;;;5.20;2.70;;;6.50;99.90;;;;;;5002065;28;20677;-85
2022/02/22 09:57:59;;;;;;;9.10;2.85;;;6.40;99.90;;;;;;5002892;28;20217;-85
2022/02/22 10:00:27;;;;;;;9.65;3.20;;;6.40;99.90;;;;;;5000362;28;20328;-86
2022/02/22 10:02:54;;;;;;;5.32;2.70;;;6.50;99.90;;;;;;5001962;28;20578;-85
2022/02/22 10:05:23;;;;;;;10.40;3.75;;;6.40;99.90;;;;;;5000612;28;20253;-85
2022/02/22 10:07:54;;;;;;;10.32;3.80;;;6.70;99.90;;;;;;5007189;28;20263;-86
2022/02/22 10:10:32;;;;;;;7.53;2.70;;;6.80;99.90;;;;;;5013965;28;20193;-85
2022/02/22 10:12:59;;;;;;;13.10;4.50;;;6.90;99.90;;;;;;5017900;28;20201;-85
2022/02/22 10:15:25;;;;;;;8.68;2.83;;;6.70;99.90;;;;;;5018100;28;20212;-85
2022/02/22 10:17:52;;;;;;;8.05;2.50;;;6.80;99.90;;;;;;5011586;28;20589;-85
2022/02/22 10:20:20;;;;;;;6.82;2.85;;;6.80;99.90;;;;;;5008745;28;20200;-85
2022/02/22 10:22:48;;;;;;;9.02;3.38;;;6.80;99.90;;;;;;5016867;28;20199;-85
2022/02/22 10:25:16;;;;;;;11.57;2.10;;;6.70;99.90;;;;;;5003428;28;20228;-85
2022/02/22 10:27:45;;;;;;;5.75;3.80;;;6.80;99.90;;;;;;5001365;28;20228;-85
2022/02/22 10:30:38;;;;;;;16.13;3.55;;;6.60;99.90;;;;;;5000266;28;20209;-86
2022/02/22 10:33:17;;;;;;;10.23;3.30;;;6.50;99.90;;;;;;5006387;28;20193;-85
2022/02/22 10:35:46;;;;;;;11.95;4.22;;;6.70;1.00;;;;;;5018325;28;20213;-85
2022/02/22 10:38:16;;;;;;;7.53;3.50;;;6.70;99.90;;;;;;5018204;28;20211;-85
2022/02/22 10:40:53;;;;;;;15.55;3.80;;;6.70;99.90;;;;;;5018155;28;20193;-85
2022/02/22 10:43:22;;;;;;;15.63;2.95;;;6.70;99.90;;;;;;5018277;28;20205;-85
2022/02/22 10:45:49;;;;;;;8.48;2.95;;;6.70;99.90;;;;;;5018264;28;20272;-85
2022/02/22 10:48:29;;;;;;;10.75;2.92;;;6.80;99.90;;;;;;5018251;28;20228;-85
2022/02/22 10:50:56;;;;;;;12.15;3.42;;;6.70;1.00;;;;;;5016122;28;20244;-85
2022/02/22 10:53:29;;;;;;;8.85;3.35;;;6.50;99.90;;;;;;5016758;28;20197;-85
2022/02/22 11:14:58;;;;;;;8.13;3.10;;;7.10;99.90;;;;;;4823467;29;20226;-86
2022/02/22 11:40:53;;;;;;;;;;;;;;;;;;;;;
2022/02/22 11:43:22;;;;;;;5.63;2.97;;;7.70;99.90;;;;;;5015261;23;20229;-83
2022/02/22 11:45:51;;;;;;;7.65;2.55;;;7.80;99.90;;;;;;5007361;28;20201;-81
2022/02/22 11:48:24;;;;;;;9.43;2.17;;;7.90;99.90;;;;;;5005139;28;20224;-81
2022/02/22 11:50:53;;;;;;;4.50;2.30;;;7.70;99.90;;;;;;5005450;28;20205;-82
2022/02/22 11:53:23;;;;;;;5.75;2.40;;;7.70;99.90;;;;;;5005541;28;20225;-83
2022/02/22 11:55:50;;;;;;;8.00;2.37;;;7.90;99.90;;;;;;5006529;28;20292;-81
2022/02/22 11:58:22;;;;;;;6.22;2.60;;;7.90;99.90;;;;;;5011346;28;20484;-82
2022/02/22 12:00:50;;;;;;;7.93;3.70;;;8.10;99.90;;;;;;5008075;28;20189;-82
2022/02/22 12:03:18;;;;;;;12.10;3.23;;;8.10;99.90;;;;;;4999270;28;20450;-83
2022/02/22 12:05:52;;;;;;;5.17;3.10;;;8.50;99.90;;;;;;5002102;28;20449;-81
2022/02/22 12:08:20;;;;;;;13.77;3.17;;;9.00;99.90;;;;;;5001542;28;20467;-82
2022/02/22 12:10:49;;;;;;;7.30;2.70;;;8.70;99.90;;;;;;5002810;28;20514;-82
2022/02/22 12:13:18;;;;;;;9.10;3.27;;;8.70;99.90;;;;;;5003068;28;20468;-83
2022/02/22 12:15:45;;;;;;;9.47;3.57;;;8.20;99.90;;;;;;5004280;28;20772;-82
2022/02/22 12:18:13;;;;;;;6.70;2.50;;;8.10;99.90;;;;;;5003930;28;20433;-84
2022/02/22 12:20:40;;;;;;;10.93;2.80;;;8.20;99.90;;;;;;5007259;28;20410;-82
2022/02/22 12:23:08;;;;;;;16.33;3.90;;;8.20;99.90;;;;;;5019609;28;20518;-82
2022/02/22 12:25:35;;;;;;;10.53;3.70;;;8.30;99.90;;;;;;5019719;28;20419;-83
2022/02/22 12:28:03;;;;;;;5.63;2.43;;;8.20;99.90;;;;;;5016999;28;20491;-83
2022/02/22 12:30:33;;;;;;;12.60;3.60;;;8.30;99.90;;;;;;5004300;28;20441;-82
2022/02/22 12:33:00;;;;;;;12.17;2.87;;;8.40;99.90;;;;;;5005816;28;20523;-82
2022/02/22 12:35:31;;;;;;;10.90;4.03;;;8.30;99.90;;;;;;5004130;28;20423;-83
2022/02/22 12:37:58;;;;;;;9.40;3.30;;;8.20;99.90;;;;;;5003125;28;20949;-82
2022/02/22 12:40:32;;;;;;;6.90;4.10;;;8.10;99.90;;;;;;5003653;28;20448;-82
2022/02/22 12:43:07;;;;;;;5.13;2.93;;;8.10;99.90;;;;;;5003883;28;20556;-82
2022/02/22 12:45:38;;;;;;;8.10;2.67;;;7.90;99.90;;;;;;5006048;28;20450;-82
2022/02/22 12:48:06;;;;;;;6.40;3.23;;;8.10;99.90;;;;;;5015978;28;20475;-83
2022/02/22 12:50:34;;;;;;;13.40;3.72;;;8.00;99.90;;;;;;5003118;28;20440;-83
2022/02/22 12:53:00;;;;;;;10.35;3.67;;;8.30;99.90;;;;;;5004125;28;20225;-84
2022/02/22 12:55:27;;;;;;;9.45;4.20;;;8.10;99.90;;;;;;5002627;28;20201;-84
2022/02/22 12:58:05;;;;;;;10.07;3.72;;;8.20;99.90;;;;;;5003079;28;20232;-83
2022/02/22 13:00:31;;;;;;;8.73;2.53;;;8.10;99.90;;;;;;5003014;28;20218;-83
2022/02/22 13:03:06;;;;;;;4.55;3.30;;;8.10;99.90;;;;;;5003818;28;20468;-84
2022/02/22 13:05:36;;;;;;;8.33;3.03;;;8.00;99.90;;;;;;5002514;28;20403;-82
2022/02/22 13:08:03;;;;;;;8.73;2.65;;;7.90;99.90;;;;;;5004594;28;20482;-84
2022/02/22 13:10:40;;;;;;;12.73;6.00;;;7.80;99.90;;;;;;5004171;28;20217;-83
2022/02/22 13:13:08;;;;;;;10.40;3.60;;;7.50;99.90;;;;;;5003175;28;20244;-82
2022/02/22 13:15:34;;;;;;;14.15;4.18;;;7.50;99.90;;;;;;5007642;28;20209;-83
2022/02/22 13:18:13;;;;;;;9.20;2.80;;;7.40;99.90;;;;;;5016731;28;20315;-82
2022/02/22 13:20:41;;;;;;;12.70;2.95;;;7.50;99.90;;;;;;5012495;28;20224;-83
2022/02/22 13:23:10;;;;;;;12.20;3.15;;;7.50;99.90;;;;;;5006336;28;20758;-82
2022/02/22 13:25:37;;;;;;;13.88;2.92;;;7.50;99.90;;;;;;5005627;28;20296;-83
2022/02/22 13:28:04;;;;;;;7.75;2.65;;;7.50;99.90;;;;;;5003806;28;20229;-83
2022/02/22 13:30:33;;;;;;;11.32;3.80;;;7.70;99.90;;;;;;5004233;28;20201;-83
2022/02/22 13:33:05;;;;;;;6.97;2.60;;;7.70;99.90;;;;;;5004015;28;20213;-82
2022/02/22 13:35:32;;;;;;;12.73;4.57;;;7.70;99.90;;;;;;5003786;28;20200;-82
2022/02/22 13:37:58;;;;;;;9.25;3.38;;;7.70;99.90;;;;;;5002071;28;20201;-82
2022/02/22 13:40:30;;;;;;;9.60;3.78;;;7.90;99.90;;;;;;5002447;28;20205;-83
2022/02/22 13:43:01;;;;;;;13.43;3.55;;;8.00;99.90;;;;;;5002065;28;20319;-84
2022/02/22 13:45:32;;;;;;;13.07;3.67;;;7.90;99.90;;;;;;5003564;28;20251;-83
2022/02/22 13:48:03;;;;;;;14.00;3.27;;;7.90;99.90;;;;;;5003548;28;20572;-82
2022/02/22 13:50:30;;;;;;;12.93;3.70;;;7.90;99.90;;;;;;5004809;28;20479;-82